Time;durP1;ratioP1;P1;durP2;ratioP2;P2;SDS_P1;SDS_P2;PMS_P1;PMS_P2;Temp;Humidity;BMP_temperature;BMP_pressure;BME280_temperature;BME280_humidity;BME280_pressure;Samples;Min_cycle;Max_cycle;Signal;HPM_P1;HPM_P2
2022/08/21 18:57:59;;;;;;;4.90;1.53;;;;;;;;;;6158375;23;20068;-84
2022/08/21 19:00:48;;;;;;;4.38;1.52;;;;;;;;;;6197500;23;20017;-84
2022/08/21 19:03:23;;;;;;;5.72;1.67;;;;;;;;;;6195593;23;20028;-84
2022/08/21 19:16:54;;;;;;;5.63;1.60;;;;;;;;;;6022404;23;20113;-85
2022/08/21 19:19:45;;;;;;;8.98;2.35;;;;;;;;;;6030361;23;20039;-85
2022/08/21 19:24:07;;;;;;;3.90;1.52;;;;;;;;;;6046848;23;20050;-85
2022/08/21 19:28:55;;;;;;;5.80;1.80;;;;;;;;;;5988509;24;20058;-85
2022/08/21 19:31:43;;;;;;;6.18;1.67;;;;;;;;;;5990684;23;20032;-84
2022/08/21 19:34:27;;;;;;;8.75;2.22;;;;;;;;;;6006994;24;20028;-85
2022/08/21 19:52:46;;;;;;;7.63;2.00;;;;;;;;;;6053198;23;20030;-86
2022/08/21 19:55:36;;;;;;;5.38;1.80;;;;;;;;;;6125742;23;20032;-84
2022/08/21 19:58:21;;;;;;;6.68;2.22;;;;;;;;;;6135026;23;20022;-84
2022/08/21 20:00:50;;;;;;;6.32;2.20;;;;;;;;;;6205247;23;20032;-84
2022/08/21 20:03:44;;;;;;;5.70;2.20;;;;;;;;;;6173128;23;20017;-82
2022/08/21 20:06:24;;;;;;;7.25;2.30;;;;;;;;;;6206325;23;20031;-83
2022/08/21 20:09:35;;;;;;;7.10;2.00;;;;;;;;;;6148841;23;20032;-84
2022/08/21 20:12:10;;;;;;;6.35;2.55;;;;;;;;;;6202400;23;20024;-83
2022/08/21 20:16:20;;;;;;;5.15;2.10;;;;;;;;;;6181002;23;20033;-85
2022/08/21 20:19:52;;;;;;;7.00;2.30;;;;;;;;;;6150927;23;20025;-85
2022/08/21 20:22:22;;;;;;;8.05;2.53;;;;;;;;;;6156501;23;20049;-84
2022/08/21 20:25:32;;;;;;;7.32;2.50;;;;;;;;;;6183521;23;20101;-87
2022/08/21 20:30:13;;;;;;;6.35;2.17;;;;;;;;;;6053751;23;20035;-85
2022/08/21 20:34:18;;;;;;;8.10;2.30;;;;;;;;;;6039053;23;20035;-84
2022/08/21 20:37:53;;;;;;;8.88;2.35;;;;;;;;;;5986477;24;20039;-84
2022/08/21 20:52:13;;;;;;;8.38;2.45;;;;;;;;;;5893796;24;20033;-84
2022/08/21 20:56:54;;;;;;;11.07;2.67;;;;;;;;;;5829799;24;20247;-86
2022/08/21 21:01:00;;;;;;;7.60;2.20;;;;;;;;;;5911955;24;20092;-87
2022/08/21 21:05:09;;;;;;;5.25;2.10;;;;;;;;;;5854394;24;20028;-86
2022/08/21 21:09:40;;;;;;;8.32;3.13;;;;;;;;;;5871794;24;20034;-87
2022/08/21 21:13:26;;;;;;;8.25;2.40;;;;;;;;;;5916450;24;20031;-86
2022/08/21 21:18:09;;;;;;;6.60;2.28;;;;;;;;;;5936072;24;20051;-86
2022/08/21 21:21:22;;;;;;;4.95;2.35;;;;;;;;;;5883456;24;20036;-86
2022/08/21 21:23:58;;;;;;;7.40;2.72;;;;;;;;;;5803509;24;20026;-86
2022/08/21 21:27:02;;;;;;;10.57;2.92;;;;;;;;;;5898835;24;20459;-86
2022/08/21 21:31:23;;;;;;;7.35;2.58;;;;;;;;;;5916012;24;20089;-84
2022/08/21 21:44:02;;;;;;;7.15;2.47;;;;;;;;;;6024617;23;20055;-85
2022/08/21 21:47:46;;;;;;;9.55;2.45;;;;;;;;;;6044695;23;20162;-83
2022/08/21 21:52:09;;;;;;;8.82;3.17;;;;;;;;;;6008878;23;20027;-87
2022/08/21 22:01:22;;;;;;;7.97;3.03;;;;;;;;;;6017669;23;20114;-85
2022/08/21 22:15:18;;;;;;;6.68;2.28;;;;;;;;;;5954734;24;20027;-85
2022/08/21 22:28:58;;;;;;;8.18;2.65;;;;;;;;;;6018081;23;20586;-87
2022/08/21 22:33:51;;;;;;;8.20;2.60;;;;;;;;;;6003180;23;20080;-87
2022/08/21 22:43:30;;;;;;;6.85;2.70;;;;;;;;;;5961567;24;20061;-87
2022/08/21 22:48:13;;;;;;;5.40;2.60;;;;;;;;;;5955996;24;20085;-87
2022/08/21 22:53:10;;;;;;;8.88;3.13;;;;;;;;;;5941057;24;20021;-86
